Time;durP1;ratioP1;P1;durP2;ratioP2;P2;SDS_P1;SDS_P2;PMS_P1;PMS_P2;Temp;Humidity;BMP_temperature;BMP_pressure;BME280_temperature;BME280_humidity;BME280_pressure;Samples;Min_cycle;Max_cycle;Signal;HPM_P1;HPM_P2
2022/07/15 00:00:23;;;;;;;7.77;1.90;;;15.60;99.90;;;;;;5050600;28;20439;-65
2022/07/15 00:02:49;;;;;;;7.40;1.70;;;15.60;99.90;;;;;;5051930;28;20403;-65
2022/07/15 00:05:15;;;;;;;7.68;2.40;;;15.50;99.90;;;;;;5050504;28;20421;-65
2022/07/15 00:07:40;;;;;;;6.53;1.97;;;15.50;99.90;;;;;;5049635;28;20393;-65
2022/07/15 00:10:15;;;;;;;6.70;1.80;;;15.60;99.90;;;;;;5049868;28;20385;-65
2022/07/15 00:12:49;;;;;;;5.75;1.50;;;15.60;99.90;;;;;;5051519;28;20409;-65
2022/07/15 00:15:16;;;;;;;7.22;1.77;;;15.60;99.90;;;;;;5050402;28;20459;-65
2022/07/15 00:17:42;;;;;;;9.18;2.10;;;15.60;99.90;;;;;;5049929;28;20373;-65
2022/07/15 00:20:09;;;;;;;4.43;1.38;;;15.60;99.90;;;;;;5052141;28;20393;-65
2022/07/15 00:22:35;;;;;;;8.88;2.00;;;15.60;99.90;;;;;;5050856;28;20580;-65
2022/07/15 00:25:01;;;;;;;9.30;2.00;;;15.70;99.90;;;;;;5051665;28;20374;-65
2022/07/15 00:27:26;;;;;;;8.30;1.70;;;15.70;99.90;;;;;;5050609;28;21006;-65
2022/07/15 00:29:52;;;;;;;6.70;1.80;;;15.70;99.90;;;;;;5050644;28;20396;-65
2022/07/15 00:32:17;;;;;;;6.40;1.67;;;15.60;99.90;;;;;;5052824;28;20401;-65
2022/07/15 00:34:43;;;;;;;7.57;2.03;;;15.60;99.90;;;;;;5051417;28;20421;-65
2022/07/15 00:37:09;;;;;;;7.57;1.85;;;15.50;99.90;;;;;;5049556;28;20484;-65
2022/07/15 00:39:35;;;;;;;6.32;1.55;;;15.50;99.90;;;;;;5049586;28;20883;-64
2022/07/15 00:42:01;;;;;;;6.70;1.70;;;15.40;99.90;;;;;;5050735;28;20382;-65
2022/07/15 00:44:26;;;;;;;5.78;1.55;;;15.40;99.90;;;;;;5050420;28;20480;-65
2022/07/15 00:46:53;;;;;;;5.53;1.70;;;15.40;99.90;;;;;;5049872;28;20739;-65
2022/07/15 00:49:19;;;;;;;8.15;2.13;;;15.40;99.90;;;;;;5048954;28;20440;-64
2022/07/15 00:51:47;;;;;;;7.18;1.70;;;15.30;99.90;;;;;;5049191;28;20393;-64
2022/07/15 00:54:15;;;;;;;5.95;1.45;;;15.30;99.90;;;;;;5049190;28;20762;-64
2022/07/15 00:56:50;;;;;;;5.72;1.70;;;15.20;99.90;;;;;;5049362;28;20389;-65
2022/07/15 00:59:18;;;;;;;6.30;1.60;;;15.20;99.90;;;;;;5050534;28;20678;-65
2022/07/15 01:01:46;;;;;;;6.97;1.65;;;15.10;99.90;;;;;;5049874;28;20389;-65
2022/07/15 01:04:13;;;;;;;4.75;1.42;;;15.10;99.90;;;;;;5048890;28;20450;-65
2022/07/15 01:06:39;;;;;;;5.80;1.97;;;15.10;99.90;;;;;;5055858;28;20548;-65
2022/07/15 01:09:05;;;;;;;8.20;1.48;;;15.10;99.90;;;;;;5055874;28;20391;-65
2022/07/15 01:11:31;;;;;;;6.10;1.63;;;15.10;99.90;;;;;;5054117;28;21281;-66
2022/07/15 01:14:01;;;;;;;9.20;1.80;;;15.20;99.90;;;;;;5053740;28;20464;-65
2022/07/15 01:16:27;;;;;;;4.40;1.30;;;15.20;99.90;;;;;;5070574;28;20380;-66
2022/07/15 01:18:53;;;;;;;7.57;1.65;;;15.20;99.90;;;;;;5053685;28;20521;-65
2022/07/15 01:21:19;;;;;;;9.90;1.70;;;15.30;99.90;;;;;;5055498;28;20384;-65
2022/07/15 01:23:45;;;;;;;8.82;1.90;;;15.20;99.90;;;;;;5054872;28;20383;-65
2022/07/15 01:26:12;;;;;;;8.47;2.20;;;15.20;99.90;;;;;;5054522;28;20384;-65
2022/07/15 01:28:38;;;;;;;8.55;1.80;;;15.20;99.90;;;;;;5054463;28;20456;-65
2022/07/15 01:31:04;;;;;;;5.38;1.48;;;15.30;99.90;;;;;;5055832;28;20392;-65
2022/07/15 01:33:31;;;;;;;7.30;1.55;;;15.30;99.90;;;;;;5055975;28;20403;-65
2022/07/15 01:35:58;;;;;;;7.15;1.63;;;15.20;99.90;;;;;;5073645;28;20384;-65
2022/07/15 01:38:24;;;;;;;4.90;1.40;;;15.20;99.90;;;;;;5056533;28;20791;-65
2022/07/15 01:40:50;;;;;;;7.68;1.95;;;15.10;99.90;;;;;;5073731;28;20391;-65
2022/07/15 01:43:16;;;;;;;5.10;1.30;;;15.10;99.90;;;;;;5057453;28;20387;-65
2022/07/15 01:45:46;;;;;;;7.03;1.60;;;15.20;99.90;;;;;;5058444;28;20375;-65
2022/07/15 01:50:57;;;;;;;6.97;1.70;;;15.10;99.90;;;;;;5073280;28;20456;-65
2022/07/15 01:53:24;;;;;;;4.90;1.40;;;15.10;99.90;;;;;;5054641;28;20545;-65
2022/07/15 01:55:50;;;;;;;5.43;1.75;;;15.20;99.90;;;;;;5072053;28;20659;-65
2022/07/15 01:58:16;;;;;;;6.55;1.77;;;15.20;99.90;;;;;;5073967;28;20799;-65
2022/07/15 02:00:41;;;;;;;5.17;1.37;;;15.20;99.90;;;;;;5056616;28;20749;-65
2022/07/15 02:03:07;;;;;;;6.93;1.90;;;15.30;99.90;;;;;;5073379;28;20422;-65
2022/07/15 02:05:33;;;;;;;6.78;1.73;;;15.30;99.90;;;;;;5072031;28;20434;-65
2022/07/15 02:07:59;;;;;;;5.90;1.38;;;15.20;99.90;;;;;;5055719;28;20396;-65
2022/07/15 02:10:24;;;;;;;8.80;1.70;;;15.20;99.90;;;;;;5072890;28;20384;-66
2022/07/15 02:12:50;;;;;;;5.77;1.30;;;15.20;99.90;;;;;;5055030;28;20756;-66
2022/07/15 02:15:15;;;;;;;7.88;1.50;;;15.20;99.90;;;;;;5057217;28;20412;-65
2022/07/15 02:17:41;;;;;;;3.33;1.17;;;15.10;99.90;;;;;;5057354;28;20394;-65
2022/07/15 02:20:07;;;;;;;4.13;1.30;;;15.10;99.90;;;;;;5056674;28;20402;-65
2022/07/15 02:22:32;;;;;;;4.68;1.38;;;14.90;99.90;;;;;;5054944;28;20495;-65
2022/07/15 02:24:58;;;;;;;6.47;1.45;;;14.80;99.90;;;;;;5055203;28;20722;-65
2022/07/15 02:27:23;;;;;;;3.93;1.10;;;14.70;99.90;;;;;;5054245;28;20420;-65
2022/07/15 02:29:49;;;;;;;4.43;1.13;;;14.70;99.90;;;;;;5070954;28;20478;-65
2022/07/15 02:32:15;;;;;;;4.75;1.55;;;14.60;99.90;;;;;;5071512;28;20410;-65
2022/07/15 02:34:40;;;;;;;3.67;0.93;;;14.60;99.90;;;;;;5053208;28;20463;-65
2022/07/15 02:37:06;;;;;;;4.77;1.20;;;14.60;99.90;;;;;;5054747;28;20395;-65
2022/07/15 02:39:31;;;;;;;3.10;1.07;;;14.60;99.90;;;;;;5054817;28;20470;-65
2022/07/15 02:41:57;;;;;;;5.03;1.20;;;14.60;99.90;;;;;;5058809;28;20649;-65
2022/07/15 02:44:22;;;;;;;5.65;1.20;;;14.50;99.90;;;;;;5075428;28;20462;-65
2022/07/15 02:46:48;;;;;;;4.93;1.37;;;14.50;99.90;;;;;;5056843;28;20383;-65
2022/07/15 02:49:13;;;;;;;6.35;1.30;;;14.50;99.90;;;;;;5057040;28;20410;-65
2022/07/15 02:51:39;;;;;;;5.03;1.23;;;14.60;99.90;;;;;;5073315;28;20499;-65
2022/07/15 02:54:04;;;;;;;3.63;1.27;;;14.50;99.90;;;;;;5054388;28;20510;-65
2022/07/15 02:56:30;;;;;;;5.72;1.10;;;14.60;99.90;;;;;;5055493;28;20392;-65
2022/07/15 02:58:55;;;;;;;5.40;1.43;;;14.60;99.90;;;;;;5055000;28;20491;-65
2022/07/15 03:01:21;;;;;;;4.38;1.33;;;14.60;99.90;;;;;;5054277;28;20453;-65
2022/07/15 03:03:46;;;;;;;4.87;1.20;;;14.70;99.90;;;;;;5054384;28;20376;-66
2022/07/15 03:06:12;;;;;;;5.10;1.20;;;14.70;99.90;;;;;;5051272;28;20418;-65
2022/07/15 03:08:37;;;;;;;4.77;1.20;;;14.60;99.90;;;;;;5049813;28;20713;-65
2022/07/15 03:11:03;;;;;;;4.77;1.40;;;14.70;99.90;;;;;;5047707;28;20412;-65
2022/07/15 03:13:29;;;;;;;4.10;1.27;;;14.70;99.90;;;;;;5046026;28;20472;-64
2022/07/15 03:15:54;;;;;;;6.73;1.40;;;14.70;99.90;;;;;;5048601;28;20389;-65
2022/07/15 03:18:20;;;;;;;4.73;1.23;;;14.70;99.90;;;;;;5048209;28;20462;-65
2022/07/15 03:20:46;;;;;;;5.95;1.33;;;14.80;99.90;;;;;;5048146;28;20397;-65
2022/07/15 03:23:12;;;;;;;3.47;0.90;;;14.80;99.90;;;;;;5049161;28;20676;-65
2022/07/15 03:25:38;;;;;;;6.87;1.37;;;14.80;99.90;;;;;;5050125;28;20660;-66
2022/07/15 03:28:03;;;;;;;4.65;1.30;;;14.80;99.90;;;;;;5048455;28;20381;-65
2022/07/15 03:30:29;;;;;;;4.40;1.40;;;14.80;99.90;;;;;;5049979;28;20390;-65
2022/07/15 03:32:55;;;;;;;3.93;0.93;;;14.80;99.90;;;;;;5049816;28;20503;-65
2022/07/15 03:35:20;;;;;;;4.70;1.20;;;14.70;99.90;;;;;;5049765;28;20413;-65
2022/07/15 03:37:46;;;;;;;6.90;1.42;;;14.80;99.90;;;;;;5053209;28;20526;-66
2022/07/15 03:40:12;;;;;;;4.97;1.00;;;14.80;99.90;;;;;;5053904;28;20438;-65
2022/07/15 03:42:37;;;;;;;5.07;1.30;;;14.80;99.90;;;;;;5051990;28;20548;-65
2022/07/15 03:45:18;;;;;;;4.50;1.13;;;14.80;99.90;;;;;;5051909;28;20397;-65
2022/07/15 03:47:44;;;;;;;4.68;1.10;;;14.80;99.90;;;;;;5051641;28;20773;-65
2022/07/15 03:50:09;;;;;;;4.03;1.20;;;14.80;99.90;;;;;;5051160;28;20404;-65
2022/07/15 03:52:35;;;;;;;4.07;1.40;;;14.80;99.90;;;;;;5051881;28;20405;-65
2022/07/15 03:55:00;;;;;;;5.07;1.10;;;14.80;99.90;;;;;;5050071;28;20440;-65
2022/07/15 03:57:26;;;;;;;3.47;1.08;;;14.80;99.90;;;;;;5048493;28;20391;-65
2022/07/15 03:59:52;;;;;;;3.85;1.00;;;14.80;99.90;;;;;;5050529;28;20389;-64
2022/07/15 04:02:19;;;;;;;3.87;1.07;;;14.60;99.90;;;;;;5048909;28;20766;-65
2022/07/15 04:04:44;;;;;;;3.55;1.30;;;14.70;99.90;;;;;;5048717;28;20424;-65
2022/07/15 04:07:09;;;;;;;6.57;1.15;;;14.70;99.90;;;;;;5049598;28;20389;-65
2022/07/15 04:09:35;;;;;;;7.23;1.30;;;14.70;99.90;;;;;;5046589;28;20425;-65
2022/07/15 04:12:01;;;;;;;5.03;1.30;;;14.70;99.90;;;;;;5049988;28;20385;-65
2022/07/15 04:14:26;;;;;;;4.77;1.13;;;14.70;99.90;;;;;;5050030;28;20397;-65
2022/07/15 04:16:52;;;;;;;4.80;1.13;;;14.70;99.90;;;;;;5051052;28;20396;-65
2022/07/15 04:19:17;;;;;;;2.67;0.93;;;14.70;99.90;;;;;;5051432;28;20393;-64
2022/07/15 04:21:43;;;;;;;5.10;1.13;;;14.70;99.90;;;;;;5050156;28;20458;-68
2022/07/15 04:24:08;;;;;;;6.05;1.30;;;14.70;99.90;;;;;;5050429;28;20393;-65
2022/07/15 04:26:34;;;;;;;4.03;1.07;;;14.80;99.90;;;;;;5048361;28;20480;-65
2022/07/15 04:29:02;;;;;;;3.93;1.00;;;14.80;99.90;;;;;;5050933;28;20385;-65
2022/07/15 04:31:27;;;;;;;4.70;1.00;;;14.80;99.90;;;;;;5049421;28;20386;-65
2022/07/15 04:33:53;;;;;;;3.38;1.00;;;14.80;99.90;;;;;;5051945;28;20745;-65
2022/07/15 04:36:18;;;;;;;2.63;0.83;;;14.70;99.90;;;;;;5051333;28;20404;-65
2022/07/15 04:38:44;;;;;;;3.13;0.95;;;14.80;99.90;;;;;;5050790;28;20473;-65
2022/07/15 04:41:09;;;;;;;5.33;1.00;;;14.80;99.90;;;;;;5050334;28;20797;-65
2022/07/15 04:43:35;;;;;;;7.07;0.97;;;14.90;99.90;;;;;;5049579;28;20393;-65
2022/07/15 04:46:00;;;;;;;9.10;1.33;;;14.90;99.90;;;;;;5048477;28;20408;-65
2022/07/15 04:51:10;;;;;;;4.77;1.20;;;15.00;99.90;;;;;;5051230;28;20579;-65
2022/07/15 04:53:35;;;;;;;5.53;1.50;;;14.90;99.90;;;;;;5049320;28;20481;-65
2022/07/15 04:56:01;;;;;;;4.53;1.35;;;14.80;99.90;;;;;;5049504;28;20788;-65
2022/07/15 04:58:27;;;;;;;4.93;1.30;;;14.80;99.90;;;;;;5048029;28;20384;-65
2022/07/15 05:00:52;;;;;;;6.03;1.50;;;14.80;99.90;;;;;;5047560;28;20393;-65
2022/07/15 05:03:18;;;;;;;6.03;1.60;;;14.90;99.90;;;;;;5048599;28;20386;-65
2022/07/15 05:05:43;;;;;;;6.78;1.50;;;14.90;99.90;;;;;;5047995;28;20705;-65
2022/07/15 05:08:09;;;;;;;6.80;1.40;;;14.90;99.90;;;;;;5048349;28;20417;-65
2022/07/15 05:10:35;;;;;;;7.33;1.90;;;14.90;99.90;;;;;;5048027;28;20450;-65
2022/07/15 05:13:04;;;;;;;5.37;1.50;;;14.90;99.90;;;;;;5047469;28;20723;-65
2022/07/15 05:15:29;;;;;;;4.85;1.48;;;14.90;99.90;;;;;;5050587;28;20409;-65
2022/07/15 05:17:55;;;;;;;3.67;1.50;;;14.80;99.90;;;;;;5049415;28;20443;-65
2022/07/15 05:20:21;;;;;;;6.40;1.73;;;14.80;99.90;;;;;;5048269;28;20643;-65
2022/07/15 05:22:47;;;;;;;4.82;1.70;;;14.90;99.90;;;;;;5045780;28;20428;-65
2022/07/15 05:25:13;;;;;;;4.70;1.50;;;14.90;99.90;;;;;;5046271;28;20437;-65
2022/07/15 05:27:38;;;;;;;6.17;1.80;;;14.80;99.90;;;;;;5048567;28;20857;-65
2022/07/15 05:30:05;;;;;;;6.37;1.63;;;14.80;99.90;;;;;;5047523;28;20394;-65
2022/07/15 05:32:30;;;;;;;3.70;1.10;;;14.80;99.90;;;;;;5050387;28;20428;-65
2022/07/15 05:34:56;;;;;;;5.90;1.60;;;14.90;99.90;;;;;;5047994;28;20431;-65
2022/07/15 05:37:21;;;;;;;4.97;1.35;;;14.90;99.90;;;;;;5046568;28;20394;-65
2022/07/15 05:39:53;;;;;;;5.17;1.60;;;14.90;99.90;;;;;;5047731;28;20514;-65
2022/07/15 05:42:20;;;;;;;7.57;1.52;;;14.90;99.90;;;;;;5046949;28;20450;-65
2022/07/15 05:44:45;;;;;;;8.52;1.88;;;14.90;99.90;;;;;;5043275;28;20384;-67
2022/07/15 05:47:11;;;;;;;6.28;1.50;;;14.90;99.90;;;;;;5042208;28;20420;-65
2022/07/15 05:49:37;;;;;;;5.03;1.67;;;14.90;99.90;;;;;;5043953;28;20467;-65
2022/07/15 05:52:02;;;;;;;6.70;1.67;;;14.80;99.90;;;;;;5044084;28;20409;-65
2022/07/15 05:54:28;;;;;;;5.18;1.48;;;14.80;99.90;;;;;;5043498;28;20437;-65
2022/07/15 05:56:53;;;;;;;6.70;1.60;;;14.60;99.90;;;;;;5042212;28;20394;-65
2022/07/15 05:59:19;;;;;;;4.40;1.37;;;14.50;99.90;;;;;;5044683;28;20733;-64
2022/07/15 06:01:44;;;;;;;7.07;1.43;;;14.60;99.90;;;;;;5047380;28;20400;-65
2022/07/15 06:04:10;;;;;;;6.13;1.40;;;14.60;99.90;;;;;;5047819;28;20462;-65
2022/07/15 06:06:35;;;;;;;5.60;1.70;;;14.70;99.90;;;;;;5046309;28;20433;-65
2022/07/15 06:09:01;;;;;;;2.33;1.00;;;14.80;99.90;;;;;;5044535;28;20420;-65
2022/07/15 06:11:26;;;;;;;3.38;0.95;;;14.80;99.90;;;;;;5042834;28;20400;-65
2022/07/15 06:13:52;;;;;;;4.18;1.27;;;14.90;99.90;;;;;;5043987;28;20470;-65
2022/07/15 06:16:18;;;;;;;3.37;0.97;;;15.00;99.90;;;;;;5042946;28;20928;-65
2022/07/15 06:18:44;;;;;;;4.45;1.17;;;15.10;99.90;;;;;;5040925;28;20400;-65
2022/07/15 06:21:09;;;;;;;4.30;1.30;;;15.20;99.90;;;;;;5038836;28;20382;-65
2022/07/15 06:23:35;;;;;;;4.25;1.33;;;15.20;99.90;;;;;;5036340;28;20589;-65
2022/07/15 06:26:00;;;;;;;4.90;1.30;;;15.20;99.90;;;;;;5034478;28;20489;-65
2022/07/15 06:28:26;;;;;;;3.00;1.30;;;15.20;99.90;;;;;;5034420;28;20377;-65
2022/07/15 06:30:51;;;;;;;4.82;1.23;;;15.20;99.90;;;;;;5036790;28;20660;-66
2022/07/15 06:33:17;;;;;;;3.87;1.23;;;15.20;99.90;;;;;;5035270;28;20405;-65
2022/07/15 06:35:42;;;;;;;5.20;1.27;;;15.20;99.90;;;;;;5037341;28;21040;-65
2022/07/15 06:38:08;;;;;;;7.70;1.77;;;15.20;99.90;;;;;;5039464;28;20385;-65
2022/07/15 06:40:34;;;;;;;5.60;1.10;;;15.30;99.90;;;;;;5040532;28;20429;-65
2022/07/15 06:42:59;;;;;;;4.87;1.33;;;15.30;99.90;;;;;;5042643;28;20381;-65
2022/07/15 06:45:25;;;;;;;3.78;1.30;;;15.40;99.90;;;;;;5043279;28;20451;-65
2022/07/15 06:47:50;;;;;;;4.53;1.00;;;15.40;99.90;;;;;;5042144;28;20481;-65
2022/07/15 06:50:16;;;;;;;4.90;1.35;;;15.40;99.90;;;;;;5041359;28;20517;-65
2022/07/15 06:52:41;;;;;;;4.63;1.15;;;15.50;99.90;;;;;;5043245;28;20396;-65
2022/07/15 06:55:08;;;;;;;5.53;1.00;;;15.60;99.90;;;;;;5043897;28;20413;-65
2022/07/15 06:57:33;;;;;;;5.30;1.30;;;15.70;99.90;;;;;;5040646;28;20385;-65
2022/07/15 07:00:01;;;;;;;4.37;1.10;;;15.70;99.90;;;;;;5042198;28;20651;-65
2022/07/15 07:02:26;;;;;;;4.85;1.10;;;15.60;99.90;;;;;;5041980;28;20420;-65
2022/07/15 07:04:52;;;;;;;5.37;1.23;;;15.60;99.90;;;;;;5040870;28;20720;-65
2022/07/15 07:07:18;;;;;;;4.53;1.20;;;15.60;99.90;;;;;;5043654;28;20385;-65
2022/07/15 07:09:44;;;;;;;4.13;1.13;;;15.60;99.90;;;;;;5041850;28;20428;-65
2022/07/15 07:12:10;;;;;;;4.57;1.07;;;15.60;99.90;;;;;;5042022;28;20388;-64
2022/07/15 07:14:35;;;;;;;5.57;1.40;;;15.70;99.90;;;;;;5039808;28;20910;-65
2022/07/15 07:17:02;;;;;;;4.20;1.40;;;15.70;99.90;;;;;;5037075;28;20413;-65
2022/07/15 07:19:28;;;;;;;6.45;1.55;;;15.60;99.90;;;;;;5036211;28;20397;-65
2022/07/15 07:21:53;;;;;;;3.70;1.10;;;15.60;99.90;;;;;;5034337;28;20394;-64
2022/07/15 07:24:19;;;;;;;3.85;1.20;;;15.60;99.90;;;;;;5033256;28;20408;-65
2022/07/15 07:26:44;;;;;;;4.97;1.60;;;15.60;99.90;;;;;;5032695;28;20500;-64
2022/07/15 07:29:12;;;;;;;7.70;1.50;;;15.70;99.90;;;;;;5034601;28;20992;-64
2022/07/15 07:31:38;;;;;;;5.37;1.53;;;15.70;99.90;;;;;;5035992;28;20769;-65
2022/07/15 07:34:05;;;;;;;6.38;1.60;;;15.80;99.90;;;;;;5037700;28;20495;-65
2022/07/15 10:47:45;;;;;;;3.28;0.70;;;18.20;99.90;;;;;;4946288;29;20442;-65
2022/07/15 10:50:37;;;;;;;2.17;0.53;;;18.10;99.90;;;;;;4931958;29;20437;-65
2022/07/15 10:53:18;;;;;;;2.40;0.60;;;18.10;99.90;;;;;;4930508;29;20487;-65
2022/07/15 10:55:47;;;;;;;2.72;0.60;;;18.10;99.90;;;;;;4945458;29;20420;-65
2022/07/15 10:58:31;;;;;;;1.70;0.60;;;18.10;99.90;;;;;;4942514;29;20394;-65
2022/07/15 11:00:57;;;;;;;4.10;1.00;;;18.10;99.90;;;;;;4927909;29;20440;-65
2022/07/15 11:03:25;;;;;;;2.42;0.60;;;18.10;99.90;;;;;;4926917;29;20394;-65
2022/07/15 11:05:51;;;;;;;1.58;0.60;;;18.10;99.90;;;;;;4944233;29;20397;-65
2022/07/15 11:08:32;;;;;;;2.20;0.60;;;18.20;99.90;;;;;;4930380;29;20389;-64
2022/07/15 11:11:18;;;;;;;1.85;0.52;;;18.20;99.90;;;;;;4930230;29;20892;-65
2022/07/15 11:13:46;;;;;;;1.55;0.60;;;18.30;99.90;;;;;;4927517;29;21064;-64
2022/07/15 11:16:12;;;;;;;2.33;0.57;;;18.60;99.90;;;;;;4928291;29;20497;-64
2022/07/15 11:18:46;;;;;;;0.98;0.43;;;18.60;99.90;;;;;;4926835;29;20398;-64
2022/07/15 11:21:15;;;;;;;1.53;0.67;;;18.50;99.90;;;;;;4928616;29;20424;-64
2022/07/15 11:23:44;;;;;;;2.80;0.60;;;18.50;99.90;;;;;;4944329;29;20398;-64
2022/07/15 11:26:10;;;;;;;2.35;0.90;;;18.40;99.90;;;;;;4925940;29;20505;-64
2022/07/15 11:28:36;;;;;;;1.92;0.55;;;18.40;99.90;;;;;;4944134;29;20476;-65
2022/07/15 11:31:02;;;;;;;3.10;0.80;;;18.20;99.90;;;;;;4926723;29;20409;-65
2022/07/15 11:33:30;;;;;;;2.40;0.70;;;18.00;99.90;;;;;;4926092;29;20390;-64
2022/07/15 11:36:01;;;;;;;2.10;0.70;;;18.10;99.90;;;;;;4926131;29;20485;-64
2022/07/15 11:38:31;;;;;;;2.60;0.80;;;18.10;99.90;;;;;;4920659;29;20647;-64
2022/07/15 11:46:30;;;;;;;2.30;0.60;;;18.80;99.90;;;;;;4942339;29;20429;-65
2022/07/15 11:49:10;;;;;;;2.75;0.77;;;18.90;99.90;;;;;;4927884;29;20409;-65
2022/07/15 11:51:35;;;;;;;2.75;0.70;;;18.90;99.90;;;;;;4927684;29;20405;-65
2022/07/15 11:54:04;;;;;;;7.57;1.10;;;18.80;99.90;;;;;;4929917;28;20405;-66
2022/07/15 11:57:02;;;;;;;2.03;0.60;;;18.60;99.90;;;;;;4933702;29;20554;-66
2022/07/15 11:59:34;;;;;;;1.97;0.70;;;18.40;99.90;;;;;;4934618;29;20398;-66
2022/07/15 12:02:00;;;;;;;1.63;0.68;;;18.40;99.90;;;;;;4952683;29;20395;-66
2022/07/15 12:04:26;;;;;;;2.88;0.80;;;18.60;99.90;;;;;;4936787;29;20382;-66
2022/07/15 12:06:52;;;;;;;1.70;0.65;;;18.70;99.90;;;;;;4952954;29;20421;-67
2022/07/15 12:09:17;;;;;;;1.60;0.60;;;18.70;99.90;;;;;;4936543;29;20445;-66
2022/07/15 12:11:43;;;;;;;4.72;0.85;;;18.70;99.90;;;;;;4934464;29;20406;-66
2022/07/15 12:14:36;;;;;;;2.60;0.70;;;18.70;99.90;;;;;;4950879;29;21095;-66
2022/07/15 12:17:52;;;;;;;3.13;0.77;;;18.60;99.90;;;;;;4933516;29;20397;-66
2022/07/15 12:20:18;;;;;;;3.97;0.90;;;18.50;99.90;;;;;;4930737;29;20401;-66
2022/07/15 12:23:07;;;;;;;3.97;0.90;;;18.40;99.90;;;;;;4934027;29;20541;-66
2022/07/15 12:25:33;;;;;;;5.00;1.13;;;18.40;99.90;;;;;;4932690;29;20456;-66
2022/07/15 12:27:59;;;;;;;2.25;0.80;;;18.50;99.90;;;;;;4935329;29;20437;-66
2022/07/15 12:30:51;;;;;;;2.13;0.52;;;18.80;99.90;;;;;;4935809;29;20441;-67
2022/07/15 12:33:23;;;;;;;5.35;1.10;;;19.50;99.90;;;;;;4929667;29;20397;-66
2022/07/15 12:35:49;;;;;;;3.20;0.82;;;19.70;99.90;;;;;;4934830;29;20417;-67
2022/07/15 12:38:30;;;;;;;2.72;0.80;;;19.40;99.90;;;;;;4953569;29;20505;-67
2022/07/15 12:41:07;;;;;;;10.95;1.35;;;19.20;99.90;;;;;;4954237;29;20625;-67
2022/07/15 12:43:49;;;;;;;1.37;0.70;;;19.00;99.90;;;;;;4934481;29;20484;-66
2022/07/15 12:46:16;;;;;;;4.72;0.98;;;18.80;99.90;;;;;;4935074;29;20423;-67
2022/07/15 12:48:47;;;;;;;3.38;0.65;;;18.70;99.90;;;;;;4935198;29;20694;-67
2022/07/15 12:51:25;;;;;;;3.90;0.80;;;18.80;99.90;;;;;;4935518;29;21098;-66
2022/07/15 12:53:50;;;;;;;3.53;1.13;;;19.00;99.90;;;;;;4933971;29;20424;-67
2022/07/15 12:56:16;;;;;;;3.37;1.03;;;19.20;99.90;;;;;;4933913;29;20390;-66
2022/07/15 12:58:42;;;;;;;5.00;1.00;;;19.60;99.90;;;;;;4934014;29;20390;-67
2022/07/15 13:01:13;;;;;;;2.57;0.80;;;19.80;99.90;;;;;;4952123;29;20406;-66
2022/07/15 13:03:39;;;;;;;3.25;0.88;;;20.10;99.90;;;;;;4933837;29;20385;-66
2022/07/15 13:06:05;;;;;;;3.83;1.05;;;20.40;99.90;;;;;;4932617;29;20457;-66
2022/07/15 13:08:33;;;;;;;2.78;0.77;;;20.40;99.90;;;;;;4931554;29;20481;-66
2022/07/15 13:11:01;;;;;;;3.60;0.75;;;20.20;99.90;;;;;;4929916;29;20447;-66
2022/07/15 13:13:29;;;;;;;4.55;0.80;;;20.10;99.90;;;;;;4930103;29;20452;-66
2022/07/15 13:15:55;;;;;;;2.63;0.75;;;19.80;99.90;;;;;;4931491;29;20565;-66
2022/07/15 13:18:24;;;;;;;2.65;0.70;;;19.70;99.90;;;;;;4947233;29;20431;-66
2022/07/15 13:20:50;;;;;;;2.28;0.93;;;19.80;99.90;;;;;;4945318;29;20417;-66
2022/07/15 13:23:16;;;;;;;4.55;1.13;;;20.10;99.90;;;;;;4947154;29;20545;-67
2022/07/15 13:25:41;;;;;;;2.97;0.90;;;20.30;99.90;;;;;;4931760;29;20404;-66
2022/07/15 13:28:08;;;;;;;3.50;0.93;;;20.50;99.90;;;;;;4946723;29;20444;-66
2022/07/15 13:30:35;;;;;;;4.27;1.00;;;20.70;99.90;;;;;;4927280;29;20406;-66
2022/07/15 13:33:01;;;;;;;3.80;1.02;;;20.90;99.90;;;;;;4921284;29;20701;-66
2022/07/15 13:35:26;;;;;;;3.55;1.00;;;21.00;99.90;;;;;;4921802;29;20417;-66
2022/07/15 13:37:55;;;;;;;3.23;0.93;;;21.00;99.90;;;;;;4939155;29;20437;-66
2022/07/15 13:40:21;;;;;;;2.88;0.90;;;21.00;99.90;;;;;;4939677;29;20398;-66
2022/07/15 13:42:49;;;;;;;3.50;0.90;;;20.80;99.90;;;;;;4925081;29;20419;-66
2022/07/15 13:45:18;;;;;;;2.50;0.90;;;20.40;99.90;;;;;;4929185;29;20413;-65
2022/07/15 13:47:46;;;;;;;4.93;0.95;;;20.30;99.90;;;;;;4925650;29;20821;-65
2022/07/15 13:52:59;;;;;;;3.08;0.70;;;20.80;99.90;;;;;;4944044;29;20401;-65
2022/07/15 13:55:25;;;;;;;3.15;0.90;;;20.90;99.90;;;;;;4927934;29;20413;-66
2022/07/15 13:57:51;;;;;;;2.25;0.88;;;21.20;99.90;;;;;;4929287;29;20390;-66
2022/07/15 14:00:21;;;;;;;3.20;0.90;;;21.10;99.90;;;;;;4932338;29;20413;-65
2022/07/15 14:02:49;;;;;;;3.25;0.70;;;21.20;99.90;;;;;;4928308;29;20421;-65
2022/07/15 14:05:49;;;;;;;3.15;1.00;;;21.50;99.90;;;;;;4925281;29;20623;-66
2022/07/15 14:08:14;;;;;;;2.67;0.73;;;21.70;99.90;;;;;;4926372;29;20512;-65
2022/07/15 14:10:41;;;;;;;4.27;0.73;;;21.60;99.90;;;;;;4941035;29;20591;-66
2022/07/15 14:13:56;;;;;;;3.30;0.60;;;21.90;99.90;;;;;;4941358;29;20669;-65
2022/07/15 14:16:22;;;;;;;3.50;0.70;;;22.00;99.90;;;;;;4922509;29;20436;-66
2022/07/15 14:19:18;;;;;;;5.28;0.68;;;22.00;99.90;;;;;;4943372;28;20786;-66
2022/07/15 14:21:44;;;;;;;1.77;0.70;;;21.60;99.90;;;;;;4920131;29;20792;-66
2022/07/15 14:24:10;;;;;;;3.72;0.70;;;21.80;99.90;;;;;;4920363;29;20604;-65
2022/07/15 14:26:35;;;;;;;2.33;0.70;;;22.10;99.90;;;;;;4921141;29;20565;-65
2022/07/15 14:29:01;;;;;;;3.47;0.80;;;22.10;99.90;;;;;;4920471;29;20598;-66
2022/07/15 14:31:27;;;;;;;1.13;0.50;;;22.20;99.90;;;;;;4922430;29;20386;-65
2022/07/15 14:33:53;;;;;;;1.02;0.50;;;22.40;99.90;;;;;;4936743;29;20410;-66
2022/07/15 14:36:18;;;;;;;1.60;0.70;;;22.30;99.90;;;;;;4923061;29;20397;-65
2022/07/15 14:38:47;;;;;;;2.47;0.70;;;22.30;99.90;;;;;;4921866;29;20783;-66
2022/07/15 14:41:18;;;;;;;1.85;0.73;;;22.20;99.90;;;;;;4923950;29;21017;-65
2022/07/15 14:43:44;;;;;;;5.50;1.10;;;22.50;99.90;;;;;;4921782;29;20437;-66
2022/07/15 14:46:09;;;;;;;2.38;0.80;;;22.60;99.90;;;;;;4939004;29;20468;-66
2022/07/15 14:49:03;;;;;;;3.37;0.80;;;22.60;99.90;;;;;;4924758;29;20397;-66
2022/07/15 14:51:38;;;;;;;2.25;0.60;;;22.70;99.90;;;;;;4923017;29;20948;-66
2022/07/15 14:54:28;;;;;;;1.90;0.60;;;22.80;99.90;;;;;;4915647;29;20567;-65
2022/07/15 14:57:32;;;;;;;2.78;0.70;;;22.50;99.90;;;;;;4918383;29;20386;-65
2022/07/15 15:00:31;;;;;;;2.25;0.70;;;22.60;99.90;;;;;;4918619;29;20417;-66
2022/07/15 15:02:57;;;;;;;2.72;0.70;;;22.10;99.90;;;;;;4917775;29;20428;-66
2022/07/15 15:05:23;;;;;;;1.60;0.50;;;22.00;99.90;;;;;;4939781;29;20394;-66
2022/07/15 15:07:49;;;;;;;1.90;0.60;;;21.90;99.90;;;;;;4947814;29;20454;-66
2022/07/15 15:10:14;;;;;;;2.07;0.63;;;22.10;99.90;;;;;;4931595;29;20449;-66
2022/07/15 15:12:41;;;;;;;2.97;0.70;;;22.10;99.90;;;;;;4933785;29;20409;-65
2022/07/15 15:15:07;;;;;;;1.33;0.52;;;22.20;99.90;;;;;;4950672;29;20441;-66
2022/07/15 15:17:32;;;;;;;1.73;0.50;;;22.10;99.90;;;;;;4928222;29;20646;-66
2022/07/15 15:19:58;;;;;;;1.58;0.70;;;21.90;99.90;;;;;;4927700;29;20490;-66
2022/07/15 15:22:26;;;;;;;1.80;0.50;;;21.90;99.90;;;;;;4929529;29;20394;-66
2022/07/15 15:24:52;;;;;;;3.60;0.90;;;21.60;99.90;;;;;;4945975;29;20396;-66
2022/07/15 15:27:17;;;;;;;2.80;0.83;;;21.80;99.90;;;;;;4927932;29;20394;-66
2022/07/15 15:29:43;;;;;;;2.42;0.90;;;21.80;99.90;;;;;;4927307;29;20386;-66
2022/07/15 15:32:11;;;;;;;3.20;0.77;;;21.90;99.90;;;;;;4926164;29;20690;-66
2022/07/15 15:34:40;;;;;;;3.42;0.90;;;22.10;99.90;;;;;;4922420;29;20504;-66
2022/07/15 15:37:06;;;;;;;2.30;1.10;;;22.20;99.90;;;;;;4938104;29;20618;-66
2022/07/15 15:39:31;;;;;;;3.00;1.05;;;22.20;99.90;;;;;;4921563;29;20762;-66
2022/07/15 15:41:57;;;;;;;3.97;1.30;;;22.30;99.90;;;;;;4942485;29;20397;-66
2022/07/15 15:44:23;;;;;;;1.88;0.85;;;22.10;99.90;;;;;;4922981;29;20596;-65
2022/07/15 15:46:48;;;;;;;4.80;1.15;;;21.80;99.90;;;;;;4920774;29;20680;-65
2022/07/15 15:49:14;;;;;;;4.17;1.00;;;21.70;99.90;;;;;;4922791;29;20424;-65
2022/07/15 15:51:40;;;;;;;1.80;1.00;;;21.50;99.90;;;;;;4928994;29;20400;-65
2022/07/15 15:54:06;;;;;;;2.47;0.90;;;21.50;99.90;;;;;;4928642;29;20411;-66
2022/07/15 15:56:31;;;;;;;2.70;1.00;;;21.40;99.90;;;;;;4928232;29;20416;-66
2022/07/15 15:59:05;;;;;;;1.40;0.70;;;21.40;99.90;;;;;;4927683;29;20475;-65
2022/07/15 16:01:49;;;;;;;2.38;0.75;;;21.30;99.90;;;;;;4926973;29;20384;-66
2022/07/15 16:05:02;;;;;;;1.70;1.10;;;21.10;99.90;;;;;;4925723;29;20804;-65
2022/07/15 16:07:40;;;;;;;2.03;0.88;;;21.10;99.90;;;;;;4927770;29;20677;-65
2022/07/15 16:10:06;;;;;;;2.58;0.75;;;21.30;99.90;;;;;;4930414;29;20403;-65
2022/07/15 16:12:33;;;;;;;2.80;0.87;;;21.30;99.90;;;;;;4928382;29;20392;-65
2022/07/15 16:18:54;;;;;;;3.70;0.82;;;21.90;99.90;;;;;;4925905;29;20510;-64
2022/07/15 16:22:52;;;;;;;3.13;0.97;;;22.10;99.90;;;;;;4928781;29;20814;-67